Time;durP1;ratioP1;P1;durP2;ratioP2;P2;SDS_P1;SDS_P2;PMS_P1;PMS_P2;Temp;Humidity;BMP_temperature;BMP_pressure;BME280_temperature;BME280_humidity;BME280_pressure;Samples;Min_cycle;Max_cycle;Signal;HPM_P1;HPM_P2
2022/09/18 00:01:38;;;;;;;;;6.00;5.20;;;;;16.34;59.53;97571.09;6163384;28;97418;-63
2022/09/18 00:04:41;;;;;;;;;8.00;7.00;;;;;16.23;59.77;97571.50;6162797;28;97441;-64
2022/09/18 00:07:44;;;;;;;;;7.00;7.00;;;;;16.15;59.96;97575.69;6162006;28;96726;-63
2022/09/18 00:10:49;;;;;;;;;6.00;6.00;;;;;15.98;60.30;97576.13;6163439;28;97537;-63
2022/09/18 00:13:53;;;;;;;;;6.60;6.00;;;;;15.87;60.53;97574.63;6164077;28;96612;-64
2022/09/18 00:16:56;;;;;;;;;6.00;6.00;;;;;15.93;60.40;97575.41;6164599;28;97604;-63
2022/09/18 00:19:59;;;;;;;;;6.00;5.20;;;;;15.93;60.50;97576.19;6163691;28;96821;-63
2022/09/18 00:23:04;;;;;;;;;6.00;6.00;;;;;16.01;60.41;97580.19;6164198;28;96556;-63
2022/09/18 00:26:10;;;;;;;;;6.00;5.75;;;;;15.94;60.57;97577.00;6163150;28;97174;-63
2022/09/18 00:29:16;;;;;;;;;7.00;6.75;;;;;15.89;60.69;97586.00;6164734;28;97624;-63
2022/09/18 00:32:20;;;;;;;;;6.00;6.00;;;;;15.90;60.77;97587.63;6164452;28;96365;-64
2022/09/18 00:35:23;;;;;;;;;6.00;5.25;;;;;15.91;60.62;97575.69;6161627;28;98555;-63
2022/09/18 00:38:27;;;;;;;;;5.00;4.25;;;;;15.75;60.95;97574.19;6164104;28;97131;-63
2022/09/18 00:41:34;;;;;;;;;6.00;6.00;;;;;15.63;61.30;97581.13;6162490;28;96466;-64
2022/09/18 00:44:40;;;;;;;;;5.00;5.00;;;;;15.66;61.35;97581.34;6145582;28;96833;-64
2022/09/18 00:47:48;;;;;;;;;7.00;6.00;;;;;15.67;61.40;97571.31;6163679;28;97301;-63
2022/09/18 00:50:52;;;;;;;;;6.00;5.00;;;;;15.73;61.25;97576.41;6146439;28;98343;-63
2022/09/18 00:54:06;;;;;;;;;4.20;4.00;;;;;15.82;60.93;97577.41;6160833;28;96841;-63
2022/09/18 00:57:15;;;;;;;;;5.00;4.67;;;;;15.70;61.25;97568.81;6159036;28;98380;-64
2022/09/18 01:00:19;;;;;;;;;6.00;5.00;;;;;15.69;61.41;97564.47;6160396;28;96514;-63
2022/09/18 01:03:22;;;;;;;;;5.00;5.00;;;;;15.71;61.50;97570.44;6160146;28;99274;-63
2022/09/18 01:06:33;;;;;;;;;5.00;5.00;;;;;15.68;61.34;97567.50;6158902;28;97442;-63
2022/09/18 01:09:47;;;;;;;;;5.40;4.40;;;;;15.63;61.35;97570.25;6159263;28;98030;-63
2022/09/18 01:12:56;;;;;;;;;5.00;4.50;;;;;15.69;61.42;97566.38;6161226;28;97963;-63
2022/09/18 01:16:06;;;;;;;;;4.00;4.00;;;;;15.52;61.77;97564.91;6142181;28;97858;-63
2022/09/18 01:19:22;;;;;;;;;4.00;4.00;;;;;15.32;62.34;97562.34;6142957;28;97792;-63
2022/09/18 01:22:35;;;;;;;;;4.20;4.20;;;;;15.41;61.91;97576.13;6161501;28;97286;-63
2022/09/18 01:25:55;;;;;;;;;6.00;5.00;;;;;15.36;62.27;97568.00;6160787;28;96998;-63
2022/09/18 01:29:08;;;;;;;;;7.00;5.00;;;;;15.23;62.48;97558.63;6160340;28;96526;-63
2022/09/18 01:32:20;;;;;;;;;6.00;4.00;;;;;15.19;62.60;97563.00;6162267;28;96422;-64
2022/09/18 01:35:30;;;;;;;;;5.00;5.00;;;;;15.18;62.66;97573.03;6160594;28;96591;-63
2022/09/18 01:38:55;;;;;;;;;5.00;4.25;;;;;15.11;62.60;97579.88;6145488;28;96884;-64
2022/09/18 01:42:02;;;;;;;;;6.00;6.00;;;;;15.16;62.61;97579.84;6160908;28;97192;-63
2022/09/18 01:45:10;;;;;;;;;4.00;3.80;;;;;15.15;62.69;97581.72;6161174;28;96778;-63
2022/09/18 01:48:19;;;;;;;;;4.20;4.20;;;;;15.12;62.77;97574.16;6160632;28;97443;-63
2022/09/18 01:51:28;;;;;;;;;5.60;5.60;;;;;15.03;62.81;97581.28;6161684;28;96376;-63
2022/09/18 01:54:37;;;;;;;;;7.00;7.00;;;;;15.00;63.25;97581.06;6162302;28;96580;-64
2022/09/18 01:57:48;;;;;;;;;6.00;6.00;;;;;15.03;62.87;97584.00;6162130;28;97478;-63
2022/09/18 02:00:57;;;;;;;;;6.00;6.00;;;;;14.99;63.16;97587.56;6160016;28;96926;-64
2022/09/18 02:04:06;;;;;;;;;6.00;5.60;;;;;14.88;63.44;97573.25;6161358;28;97409;-64
2022/09/18 02:07:16;;;;;;;;;6.00;6.00;;;;;14.91;63.57;97593.56;6165114;28;96429;-63
2022/09/18 02:10:23;;;;;;;;;6.00;6.00;;;;;14.95;63.24;97597.38;6165838;28;96865;-63
2022/09/18 02:13:32;;;;;;;;;6.00;5.80;;;;;15.03;62.88;97592.16;6164742;28;97134;-63
2022/09/18 02:16:44;;;;;;;;;5.00;4.00;;;;;15.03;62.78;97592.16;6166156;28;96537;-63
2022/09/18 02:19:52;;;;;;;;;6.00;6.00;;;;;14.98;62.85;97592.19;6165634;28;97587;-63
2022/09/18 02:23:03;;;;;;;;;6.00;6.00;;;;;14.93;62.92;97588.69;6165468;28;97400;-63
2022/09/18 02:26:11;;;;;;;;;7.00;5.50;;;;;14.95;62.85;97591.94;6159943;28;97796;-63
2022/09/18 02:29:17;;;;;;;;;6.60;5.60;;;;;14.78;62.63;97575.22;6165740;28;96434;-63
2022/09/18 02:32:21;;;;;;;;;7.80;6.80;;;;;14.84;62.87;97601.22;6166352;28;96691;-63
2022/09/18 02:35:37;;;;;;;;;6.25;5.25;;;;;14.86;62.78;97601.75;6164628;28;98192;-63
2022/09/18 02:38:49;;;;;;;;;6.00;6.00;;;;;14.82;62.77;97598.78;6164388;28;96490;-63
2022/09/18 02:42:08;;;;;;;;;7.40;6.60;;;;;14.96;62.53;97602.50;6165412;28;96424;-63
2022/09/18 02:45:25;;;;;;;;;6.20;6.20;;;;;14.94;62.49;97612.03;6164752;28;96754;-63
2022/09/18 02:48:47;;;;;;;;;5.00;5.00;;;;;14.93;62.42;97608.50;6158830;28;96908;-64
2022/09/18 02:51:57;;;;;;;;;8.00;7.00;;;;;14.91;62.52;97613.38;6148386;28;98399;-63
2022/09/18 02:55:09;;;;;;;;;6.00;6.00;;;;;14.92;62.50;97606.88;6163525;28;96568;-63
2022/09/18 02:58:17;;;;;;;;;7.60;6.00;;;;;14.82;62.81;97614.25;6162149;28;96524;-63
2022/09/18 03:01:26;;;;;;;;;6.00;6.00;;;;;14.74;62.53;97608.34;6163089;28;97060;-63
2022/09/18 03:04:33;;;;;;;;;6.00;6.00;;;;;14.86;62.39;97605.28;6162300;28;97544;-63
2022/09/18 03:07:39;;;;;;;;;6.00;6.00;;;;;14.86;62.20;97609.88;6162523;28;97037;-64
2022/09/18 03:10:42;;;;;;;;;8.00;8.00;;;;;14.93;62.16;97618.53;6165078;28;97376;-64
2022/09/18 03:13:46;;;;;;;;;6.00;6.00;;;;;14.79;62.28;97620.25;6164827;28;96708;-63
2022/09/18 03:16:49;;;;;;;;;6.00;5.75;;;;;14.91;62.05;97613.38;6161621;28;96800;-63
2022/09/18 03:19:54;;;;;;;;;5.00;5.00;;;;;14.93;61.91;97613.94;6146929;28;98350;-63
2022/09/18 03:22:58;;;;;;;;;6.20;6.00;;;;;14.92;61.61;97614.19;6171798;28;96585;-63
2022/09/18 03:26:01;;;;;;;;;7.40;7.00;;;;;14.86;61.78;97613.41;6161851;28;97371;-63
2022/09/18 03:29:07;;;;;;;;;6.00;5.60;;;;;14.75;61.88;97620.00;6165232;28;97417;-63
2022/09/18 03:32:12;;;;;;;;;6.00;5.60;;;;;14.84;61.64;97628.34;6164305;28;96715;-64
2022/09/18 03:35:22;;;;;;;;;9.00;7.00;;;;;14.87;61.58;97627.78;6141061;28;98559;-63
2022/09/18 03:38:25;;;;;;;;;7.33;7.33;;;;;14.87;61.67;97625.06;6150836;28;97353;-63
2022/09/18 03:41:32;;;;;;;;;6.00;6.00;;;;;14.91;61.37;97637.00;6147068;28;98584;-63
2022/09/18 03:44:36;;;;;;;;;8.00;7.50;;;;;14.77;61.81;97630.56;6179835;28;97579;-63
2022/09/18 03:47:47;;;;;;;;;7.00;6.20;;;;;14.71;62.04;97633.28;6163193;28;98497;-63
2022/09/18 03:50:52;;;;;;;;;8.00;8.00;;;;;14.82;62.23;97634.06;6180000;28;97444;-63
2022/09/18 03:53:57;;;;;;;;;7.50;6.50;;;;;14.79;62.17;97625.66;6179461;28;97081;-63
2022/09/18 03:57:16;;;;;;;;;7.00;6.00;;;;;14.84;62.09;97636.50;6140545;28;97397;-63
2022/09/18 04:00:40;;;;;;;;;7.00;6.00;;;;;14.83;62.08;97645.72;6159132;28;96725;-63
2022/09/18 04:03:52;;;;;;;;;7.00;6.40;;;;;14.78;62.33;97638.41;6163887;28;96905;-63
2022/09/18 04:07:15;;;;;;;;;6.00;5.25;;;;;14.84;61.68;97639.22;6162353;28;98378;-63
2022/09/18 04:10:48;;;;;;;;;6.00;6.00;;;;;14.70;61.68;97642.53;6161899;28;96745;-64
2022/09/18 04:13:51;;;;;;;;;7.00;6.00;;;;;14.65;61.77;97648.00;6152846;28;97092;-63
2022/09/18 04:16:54;;;;;;;;;5.00;4.00;;;;;14.63;61.86;97647.44;6171175;28;96925;-63
2022/09/18 04:19:58;;;;;;;;;5.20;5.00;;;;;14.64;61.83;97651.78;6171054;28;97294;-64
2022/09/18 04:23:04;;;;;;;;;5.40;5.00;;;;;14.55;61.32;97623.63;6170909;28;96970;-63
2022/09/18 04:26:09;;;;;;;;;5.00;4.00;;;;;14.61;61.16;97648.81;6162553;28;97089;-64
2022/09/18 04:29:21;;;;;;;;;4.20;4.20;;;;;14.48;61.06;97627.69;6162440;28;97568;-63
2022/09/18 04:32:26;;;;;;;;;5.00;4.00;;;;;14.61;61.04;97655.03;6161622;28;96716;-63
2022/09/18 04:35:29;;;;;;;;;6.00;6.00;;;;;14.42;61.01;97651.31;6163075;28;96739;-63
2022/09/18 04:38:34;;;;;;;;;8.00;7.20;;;;;14.57;61.01;97659.38;6162798;28;97351;-63
2022/09/18 04:41:37;;;;;;;;;7.40;7.20;;;;;14.55;61.17;97661.59;6162213;28;96632;-64
2022/09/18 04:44:41;;;;;;;;;8.50;7.50;;;;;14.49;61.54;97665.41;6162458;28;97449;-63
2022/09/18 04:47:48;;;;;;;;;8.00;7.00;;;;;14.45;61.58;97661.63;6162810;28;96568;-63
2022/09/18 04:50:54;;;;;;;;;7.40;7.40;;;;;14.44;61.95;97668.13;6160558;28;97040;-63
2022/09/18 04:53:59;;;;;;;;;9.00;8.40;;;;;14.41;61.84;97655.13;6161990;28;96694;-64
2022/09/18 04:57:03;;;;;;;;;7.00;7.00;;;;;14.41;61.66;97676.00;6161505;28;98307;-64
2022/09/18 05:00:14;;;;;;;;;8.00;8.00;;;;;14.41;61.60;97676.00;6308144;27;96537;-64
2022/09/18 05:03:18;;;;;;;;;8.00;7.40;;;;;14.30;61.78;97675.19;6278455;27;97073;-63
2022/09/18 05:06:23;;;;;;;;;8.60;7.60;;;;;14.33;61.37;97664.59;6263663;27;96682;-64
2022/09/18 05:09:26;;;;;;;;;7.00;7.00;;;;;14.39;61.58;97667.31;6263793;27;97357;-64
2022/09/18 05:12:30;;;;;;;;;8.00;7.00;;;;;14.35;61.55;97669.75;6263473;27;97094;-64
2022/09/18 05:15:34;;;;;;;;;8.40;7.80;;;;;14.31;61.11;97680.34;6264392;27;97110;-63
2022/09/18 05:18:39;;;;;;;;;6.00;5.50;;;;;14.39;60.95;97686.31;6264193;27;96685;-63
2022/09/18 05:21:43;;;;;;;;;10.00;9.00;;;;;14.39;60.15;97670.84;6247437;27;99160;-64
2022/09/18 05:24:47;;;;;;;;;9.00;8.00;;;;;14.40;60.34;97672.47;6262815;27;97473;-64
2022/09/18 05:27:54;;;;;;;;;7.25;6.00;;;;;14.45;60.08;97679.78;6247580;27;96658;-63
2022/09/18 05:31:01;;;;;;;;;8.60;8.60;;;;;14.53;59.86;97674.59;6263179;27;97207;-63
2022/09/18 05:34:18;;;;;;;;;8.00;7.00;;;;;14.65;59.36;97677.81;6247820;27;98454;-63
2022/09/18 05:37:22;;;;;;;;;7.60;7.00;;;;;14.67;59.22;97675.63;6283134;27;96624;-64
2022/09/18 05:40:32;;;;;;;;;6.00;6.00;;;;;14.71;59.02;97686.72;6256346;27;96768;-64
2022/09/18 05:43:36;;;;;;;;;6.20;6.00;;;;;14.73;59.27;97685.38;6263855;27;97751;-64
2022/09/18 05:46:47;;;;;;;;;6.00;6.00;;;;;14.87;59.26;97685.59;6264403;27;96478;-64
2022/09/18 05:49:51;;;;;;;;;5.80;5.80;;;;;14.93;59.09;97686.38;6254126;27;98316;-64
2022/09/18 05:53:00;;;;;;;;;4.67;4.00;;;;;15.08;58.52;97681.69;6259699;27;97392;-63
2022/09/18 05:56:10;;;;;;;;;5.80;5.00;;;;;15.28;58.33;97691.63;6263936;27;97187;-63
2022/09/18 05:59:13;;;;;;;;;6.00;6.00;;;;;15.28;58.00;97685.38;6246186;27;96877;-63
2022/09/18 06:02:21;;;;;;;;;5.00;5.00;;;;;15.32;57.99;97686.44;6262320;27;96657;-64
2022/09/18 06:05:37;;;;;;;;;5.40;5.40;;;;;15.41;57.71;97688.28;6264193;27;97649;-63
2022/09/18 06:08:40;;;;;;;;;5.20;4.20;;;;;15.60;57.11;97689.25;6262461;27;97837;-64
2022/09/18 06:11:44;;;;;;;;;5.50;5.25;;;;;15.65;55.89;97693.03;6264106;27;96449;-63
2022/09/18 06:14:47;;;;;;;;;6.60;5.00;;;;;16.06;55.89;97688.06;6264338;27;97059;-63
2022/09/18 06:17:53;;;;;;;;;5.00;5.00;;;;;16.28;54.87;97693.81;6228974;27;99378;-64
2022/09/18 06:20:57;;;;;;;;;5.00;5.00;;;;;16.54;54.29;97688.94;6246698;27;98536;-63
2022/09/18 06:24:05;;;;;;;;;7.00;6.00;;;;;16.80;53.16;97695.75;6243012;27;97424;-64
2022/09/18 06:27:34;;;;;;;;;6.50;6.00;;;;;17.15;52.62;97705.38;6235871;28;97446;-64
2022/09/18 06:30:38;;;;;;;;;6.80;6.00;;;;;17.27;51.07;97703.84;6239248;27;97494;-64
2022/09/18 06:33:42;;;;;;;;;7.00;7.00;;;;;17.26;50.37;97701.41;6242825;27;96963;-63
2022/09/18 06:36:46;;;;;;;;;7.00;6.80;;;;;17.18;50.49;97702.88;6262374;27;97406;-63
2022/09/18 06:39:59;;;;;;;;;5.40;5.00;;;;;17.21;49.98;97704.19;6240873;27;97011;-64
2022/09/18 06:43:23;;;;;;;;;7.00;7.00;;;;;17.23;49.98;97710.16;6242702;27;98058;-63
2022/09/18 06:46:49;;;;;;;;;6.00;5.75;;;;;17.21;50.14;97706.91;6258650;27;97420;-64
2022/09/18 06:50:05;;;;;;;;;6.00;5.00;;;;;17.46;49.02;97712.00;6246814;27;96677;-64
2022/09/18 06:53:09;;;;;;;;;7.00;6.40;;;;;17.63;48.89;97708.81;6228772;27;97823;-64
2022/09/18 06:56:24;;;;;;;;;6.00;5.00;;;;;17.58;48.09;97709.66;6239627;27;96628;-64
2022/09/18 06:59:29;;;;;;;;;7.00;7.00;;;;;17.59;48.47;97700.41;6245851;27;96894;-64
2022/09/18 07:02:33;;;;;;;;;6.60;6.60;;;;;17.36;48.98;97711.34;6227817;27;97761;-63
2022/09/18 07:05:57;;;;;;;;;7.00;6.00;;;;;17.44;49.31;97713.44;6263806;27;97439;-64
2022/09/18 07:09:15;;;;;;;;;6.60;6.00;;;;;17.37;48.03;97708.34;6226911;27;99681;-64
2022/09/18 07:12:29;;;;;;;;;5.00;5.00;;;;;17.53;48.44;97711.66;6236555;27;97240;-64
2022/09/18 07:15:34;;;;;;;;;6.75;6.00;;;;;17.55;47.38;97695.81;6228045;27;97795;-64
2022/09/18 07:18:41;;;;;;;;;4.00;4.00;;;;;17.89;47.08;97715.47;6262677;27;98147;-64
2022/09/18 07:21:48;;;;;;;;;6.50;6.00;;;;;17.92;46.53;97706.72;6230686;27;97506;-63
2022/09/18 07:24:52;;;;;;;;;6.00;6.00;;;;;18.09;46.06;97715.13;6220035;28;96443;-64
2022/09/18 07:28:03;;;;;;;;;5.20;4.80;;;;;18.11;46.49;97712.94;6241590;27;97352;-64
2022/09/18 07:31:07;;;;;;;;;7.00;7.00;;;;;18.24;46.31;97721.44;6231655;27;96738;-64
2022/09/18 07:34:12;;;;;;;;;5.00;5.00;;;;;18.18;46.45;97699.72;6262201;27;97491;-63
2022/09/18 07:37:18;;;;;;;;;4.00;4.00;;;;;18.09;47.01;97711.59;6245109;27;97294;-64
2022/09/18 07:40:29;;;;;;;;;5.00;5.00;;;;;17.97;46.80;97714.00;6227027;27;96666;-64
2022/09/18 07:43:41;;;;;;;;;5.60;4.80;;;;;17.83;46.85;97713.97;6237446;27;96854;-64
2022/09/18 07:46:45;;;;;;;;;3.50;3.00;;;;;17.96;47.24;97704.19;6239611;27;97613;-63
2022/09/18 07:49:49;;;;;;;;;4.00;4.00;;;;;18.15;46.05;97707.69;6242895;27;96752;-65
2022/09/18 07:52:56;;;;;;;;;4.40;4.00;;;;;18.09;45.63;97706.97;6234135;27;97913;-64
2022/09/18 07:56:07;;;;;;;;;5.00;4.00;;;;;18.05;45.73;97716.03;6240330;27;97473;-63
2022/09/18 07:59:11;;;;;;;;;4.00;4.00;;;;;17.75;46.22;97706.44;6223435;27;97000;-64
2022/09/18 08:02:14;;;;;;;;;4.00;4.00;;;;;17.92;46.23;97709.44;6250034;27;97014;-63
2022/09/18 08:05:19;;;;;;;;;4.00;3.50;;;;;18.09;45.86;97720.59;6240352;27;97349;-63
2022/09/18 08:08:29;;;;;;;;;5.00;5.00;;;;;18.30;45.47;97715.59;6240721;27;96817;-64
2022/09/18 08:11:44;;;;;;;;;5.00;4.40;;;;;18.39;44.76;97716.53;6241168;27;97477;-63
2022/09/18 08:15:19;;;;;;;;;5.00;5.00;;;;;18.65;44.77;97710.63;6205085;27;97293;-64
2022/09/18 08:18:49;;;;;;;;;4.00;4.00;;;;;18.43;44.17;97716.72;6211159;27;99458;-63
2022/09/18 08:22:13;;;;;;;;;5.00;5.00;;;;;18.29;45.47;97713.16;6224166;27;97884;-64
2022/09/18 08:25:25;;;;;;;;;5.25;5.25;;;;;17.84;45.76;97709.31;6244951;27;96384;-63
2022/09/18 08:28:30;;;;;;;;;3.00;3.00;;;;;17.74;46.93;97719.25;6244263;27;98065;-64
2022/09/18 08:31:36;;;;;;;;;4.25;3.50;;;;;17.77;47.38;97712.41;6244993;27;97431;-64
2022/09/18 08:34:43;;;;;;;;;5.00;4.00;;;;;17.74;47.53;97707.53;6242131;27;96918;-64
2022/09/18 08:37:49;;;;;;;;;3.00;3.00;;;;;17.82;46.82;97716.97;6243835;27;96735;-64
2022/09/18 08:41:39;;;;;;;;;4.40;4.40;;;;;18.49;45.84;97721.00;6232551;27;97092;-64
2022/09/18 08:44:48;;;;;;;;;4.00;4.00;;;;;19.34;44.38;97715.75;6226203;27;98504;-65
2022/09/18 08:47:58;;;;;;;;;4.00;4.00;;;;;19.65;43.00;97723.28;6244370;27;96671;-64
2022/09/18 08:51:09;;;;;;;;;3.00;3.00;;;;;20.01;41.87;97713.13;6243087;27;96858;-62
2022/09/18 08:54:20;;;;;;;;;4.00;4.00;;;;;20.20;40.69;97724.69;6243713;27;96641;-62
2022/09/18 08:57:47;;;;;;;;;5.60;5.60;;;;;20.16;40.52;97709.22;6243016;27;97791;-61
2022/09/18 09:01:06;;;;;;;;;4.00;4.00;;;;;19.67;40.66;97710.13;6242138;27;97622;-62
2022/09/18 09:04:18;;;;;;;;;5.00;5.00;;;;;19.33;41.39;97686.81;6240771;27;98246;-62
2022/09/18 09:07:38;;;;;;;;;5.00;4.20;;;;;19.16;41.94;97715.88;6253061;27;97352;-62
2022/09/18 09:10:50;;;;;;;;;4.40;4.40;;;;;18.84;41.54;97686.78;6241276;27;96902;-62
2022/09/18 09:14:24;;;;;;;;;4.40;4.00;;;;;19.86;40.72;97705.28;6221013;27;99454;-63
2022/09/18 09:17:52;;;;;;;;;4.00;4.00;;;;;19.50;40.50;97679.94;6239670;27;96535;-63
2022/09/18 09:21:10;;;;;;;;;4.00;4.00;;;;;19.15;40.87;97708.81;6239462;27;96746;-63
2022/09/18 09:24:30;;;;;;;;;3.60;3.60;;;;;18.85;41.74;97707.50;6240836;27;97401;-62
2022/09/18 09:27:44;;;;;;;;;5.00;5.00;;;;;18.69;43.24;97698.81;6259558;27;96939;-62
2022/09/18 09:31:19;;;;;;;;;4.00;4.00;;;;;18.08;43.70;97708.06;6247569;27;97484;-62
2022/09/18 09:34:58;;;;;;;;;5.00;4.00;;;;;17.97;44.63;97703.91;6238306;27;98629;-61
2022/09/18 09:38:29;;;;;;;;;3.00;3.00;;;;;18.19;44.95;97709.50;6262156;27;96492;-62
2022/09/18 09:41:38;;;;;;;;;4.00;4.00;;;;;19.22;43.56;97699.06;6225199;27;97082;-62
2022/09/18 09:44:48;;;;;;;;;3.25;3.25;;;;;20.51;39.63;97702.03;6241562;27;96645;-62
2022/09/18 09:48:01;;;;;;;;;2.60;2.00;;;;;20.44;40.48;97699.75;6255397;27;96674;-62
2022/09/18 09:51:14;;;;;;;;;5.00;4.00;;;;;20.12;39.82;97691.81;6236053;27;97728;-63
2022/09/18 09:54:18;;;;;;;;;4.00;3.60;;;;;19.84;39.45;97699.34;6246570;27;97520;-63
2022/09/18 09:57:27;;;;;;;;;4.00;4.00;;;;;19.53;40.64;97707.44;6229297;27;98383;-62
2022/09/18 10:00:38;;;;;;;;;2.60;2.60;;;;;19.64;40.96;97708.03;6245074;27;97387;-62
2022/09/18 10:03:59;;;;;;;;;2.00;2.00;;;;;20.32;39.54;97685.84;6244235;27;97644;-63
2022/09/18 10:07:17;;;;;;;;;3.20;3.00;;;;;20.23;39.74;97712.31;6239502;27;96635;-61
2022/09/18 10:10:31;;;;;;;;;3.00;3.00;;;;;21.44;37.85;97705.44;6222903;27;97452;-62
2022/09/18 10:13:41;;;;;;;;;4.00;4.00;;;;;21.13;37.73;97711.81;6223631;27;97799;-61
2022/09/18 10:16:48;;;;;;;;;4.00;3.00;;;;;20.97;37.70;97715.25;6239480;27;97048;-61
2022/09/18 10:19:54;;;;;;;;;2.80;2.80;;;;;20.59;38.53;97713.03;6234816;27;97765;-62
2022/09/18 10:23:03;;;;;;;;;4.75;4.75;;;;;20.45;38.49;97717.78;6241597;27;97102;-62
2022/09/18 10:26:13;;;;;;;;;4.00;4.00;;;;;20.43;37.40;97711.03;6234166;27;98952;-62
2022/09/18 10:29:18;;;;;;;;;4.00;4.00;;;;;20.24;38.34;97711.19;6241847;27;96747;-61
2022/09/18 10:32:35;;;;;;;;;3.25;3.25;;;;;20.30;38.59;97716.25;6240584;27;97451;-62
2022/09/18 10:35:48;;;;;;;;;2.60;2.60;;;;;20.17;38.95;97708.91;6241789;27;97385;-62
2022/09/18 10:38:52;;;;;;;;;3.00;2.00;;;;;19.81;40.26;97717.16;6235914;27;96800;-62
2022/09/18 10:42:04;;;;;;;;;2.60;2.60;;;;;19.71;41.76;97746.66;6226028;27;97499;-62
2022/09/18 10:45:23;;;;;;;;;3.00;3.00;;;;;19.44;42.64;97744.81;6243805;27;97131;-62
2022/09/18 10:48:31;;;;;;;;;2.00;2.00;;;;;19.81;42.97;97741.78;6224484;27;97897;-64
2022/09/18 10:51:36;;;;;;;;;3.00;3.00;;;;;19.61;42.44;97736.78;6243199;27;96767;-64
2022/09/18 10:54:39;;;;;;;;;4.00;3.80;;;;;20.22;42.60;97736.16;6242349;27;97281;-64
2022/09/18 10:58:00;;;;;;;;;3.00;3.00;;;;;21.15;39.18;97747.13;6240270;27;96791;-63
2022/09/18 11:01:07;;;;;;;;;4.40;4.00;;;;;22.47;38.67;97738.34;6244015;27;97497;-64
2022/09/18 11:04:17;;;;;;;;;2.60;2.60;;;;;23.28;35.81;97732.69;6243391;27;97414;-63
2022/09/18 11:07:24;;;;;;;;;4.00;4.00;;;;;23.89;34.94;97727.63;6223547;27;96688;-64
2022/09/18 11:10:31;;;;;;;;;4.00;3.00;;;;;24.42;33.88;97718.56;6234085;27;96798;-64
2022/09/18 11:13:43;;;;;;;;;3.00;3.00;;;;;24.54;33.56;97726.84;6226407;27;99531;-64
2022/09/18 11:16:55;;;;;;;;;4.00;4.00;;;;;23.61;33.67;97725.38;6240481;27;98018;-64
2022/09/18 11:20:02;;;;;;;;;2.00;2.00;;;;;22.88;35.51;97724.00;6228592;27;97401;-64
2022/09/18 11:23:31;;;;;;;;;2.75;2.75;;;;;21.49;38.26;97735.44;6248476;27;97478;-63
2022/09/18 11:26:48;;;;;;;;;3.00;3.00;;;;;20.86;40.86;97755.84;6218680;27;98019;-62
2022/09/18 11:29:52;;;;;;;;;4.40;4.40;;;;;19.70;43.04;97767.72;6261601;27;96639;-63
2022/09/18 11:33:01;;;;;;;;;4.00;4.00;;;;;19.21;44.76;97760.28;6242566;27;96920;-62
2022/09/18 11:36:10;;;;;;;;;3.00;2.60;;;;;18.64;45.92;97761.69;6244602;27;96390;-61
2022/09/18 11:39:23;;;;;;;;;3.00;3.00;;;;;18.48;46.56;97765.75;6228095;27;97822;-62
2022/09/18 11:42:30;;;;;;;;;3.00;3.00;;;;;18.26;46.94;97768.34;6245325;27;98379;-62
2022/09/18 11:45:53;;;;;;;;;3.00;3.00;;;;;18.15;47.29;97763.06;6243205;27;96841;-62
2022/09/18 11:49:03;;;;;;;;;4.50;4.50;;;;;18.17;47.56;97762.75;6237005;28;96549;-61
2022/09/18 11:52:14;;;;;;;;;2.00;2.00;;;;;18.03;46.97;97762.69;6244759;27;96558;-62
2022/09/18 11:55:33;;;;;;;;;3.00;3.00;;;;;17.97;47.38;97753.00;6236610;27;96801;-61
2022/09/18 11:58:43;;;;;;;;;2.60;2.60;;;;;18.05;47.91;97770.59;6236291;27;98247;-61
2022/09/18 12:01:52;;;;;;;;;2.00;2.00;;;;;17.99;47.92;97779.94;6227223;27;97374;-63
2022/09/18 12:05:06;;;;;;;;;3.00;3.00;;;;;18.39;47.96;97781.22;6242501;27;99305;-63
2022/09/18 12:08:19;;;;;;;;;4.00;4.00;;;;;18.55;46.88;97777.16;6233341;27;97752;-61
2022/09/18 12:11:36;;;;;;;;;2.00;2.00;;;;;18.59;45.91;97773.50;6224122;27;97716;-62
2022/09/18 12:14:46;;;;;;;;;1.80;1.80;;;;;19.57;45.21;97782.25;6240419;27;97276;-62
2022/09/18 12:17:57;;;;;;;;;2.00;2.00;;;;;19.86;45.00;97777.22;6241961;27;97519;-61
2022/09/18 12:21:10;;;;;;;;;2.00;2.00;;;;;19.90;43.84;97767.28;6219616;27;98660;-61
2022/09/18 12:24:17;;;;;;;;;3.00;3.00;;;;;19.25;43.46;97761.31;6218123;27;97254;-61
2022/09/18 12:27:32;;;;;;;;;2.60;2.40;;;;;18.69;44.54;97782.63;6224261;27;98015;-61
2022/09/18 12:30:46;;;;;;;;;3.40;2.40;;;;;18.54;46.15;97787.25;6237440;27;97516;-62
2022/09/18 12:33:58;;;;;;;;;3.20;3.20;;;;;18.29;47.35;97781.38;6257751;27;97041;-62
2022/09/18 12:37:20;;;;;;;;;2.00;2.00;;;;;17.86;48.46;97797.88;6234957;27;100188;-61
2022/09/18 12:40:36;;;;;;;;;4.00;4.00;;;;;17.71;50.10;97795.34;6259552;27;97487;-62
2022/09/18 12:43:58;;;;;;;;;3.00;3.00;;;;;17.41;51.89;97790.28;6253620;27;97903;-62
2022/09/18 12:47:21;;;;;;;;;5.75;5.75;;;;;17.46;52.41;97799.22;6258823;27;97265;-63
2022/09/18 12:50:53;;;;;;;;;4.00;3.00;;;;;17.52;52.04;97786.31;6256508;27;98158;-62
2022/09/18 12:54:11;;;;;;;;;3.00;3.00;;;;;17.64;51.52;97792.19;6224189;27;97508;-63
2022/09/18 12:57:26;;;;;;;;;4.00;3.00;;;;;17.72;51.17;97794.25;6248815;27;97463;-64
2022/09/18 13:00:31;;;;;;;;;4.00;3.40;;;;;17.77;51.86;97802.38;6241437;27;97351;-63
2022/09/18 13:03:39;;;;;;;;;2.00;2.00;;;;;17.79;51.78;97802.09;6241779;27;96569;-63
2022/09/18 13:06:48;;;;;;;;;4.00;4.00;;;;;17.59;52.17;97812.13;6249690;27;97248;-63
2022/09/18 13:09:56;;;;;;;;;3.00;3.00;;;;;17.54;51.43;97817.66;6260247;27;96850;-63
2022/09/18 13:13:05;;;;;;;;;3.33;3.33;;;;;17.31;51.94;97808.38;6242689;27;99415;-63
2022/09/18 13:16:15;;;;;;;;;3.40;3.40;;;;;17.38;52.27;97816.22;6260747;27;97499;-63
2022/09/18 13:19:23;;;;;;;;;2.75;2.00;;;;;17.43;52.09;97816.16;6226229;27;97865;-63
2022/09/18 13:22:33;;;;;;;;;3.00;3.00;;;;;17.34;51.97;97820.63;6266703;27;96868;-63
2022/09/18 13:25:39;;;;;;;;;3.60;3.60;;;;;17.23;52.50;97819.94;6248201;27;97179;-64
2022/09/18 13:28:43;;;;;;;;;3.00;3.00;;;;;17.13;53.00;97822.78;6247225;27;97770;-63
2022/09/18 13:31:53;;;;;;;;;2.00;2.00;;;;;17.10;53.02;97823.34;6250920;27;97155;-63
2022/09/18 13:34:59;;;;;;;;;2.00;2.00;;;;;17.09;53.13;97823.63;6243700;27;97755;-64
2022/09/18 13:38:15;;;;;;;;;2.00;2.00;;;;;17.03;52.69;97832.97;6262845;27;97441;-63
2022/09/18 13:41:19;;;;;;;;;3.00;2.40;;;;;17.13;53.02;97835.56;6262257;27;98037;-64
2022/09/18 13:44:25;;;;;;;;;3.00;3.00;;;;;17.13;52.30;97838.28;6245229;27;96876;-63
2022/09/18 13:47:31;;;;;;;;;3.00;3.00;;;;;17.20;51.70;97844.22;6247288;27;97871;-64
2022/09/18 13:50:36;;;;;;;;;3.00;3.00;;;;;17.24;51.85;97837.91;6247447;27;96925;-63
2022/09/18 13:53:41;;;;;;;;;3.00;2.80;;;;;17.23;51.47;97847.16;6266106;27;96379;-63
2022/09/18 13:57:20;;;;;;;;;2.00;2.00;;;;;17.23;51.42;97846.34;6254799;27;98907;-64
2022/09/18 14:00:44;;;;;;;;;3.00;3.00;;;;;17.11;51.90;97848.66;6262477;27;96633;-63
2022/09/18 14:03:49;;;;;;;;;3.00;3.00;;;;;16.96;52.30;97860.50;6260526;27;98200;-63
2022/09/18 14:06:53;;;;;;;;;2.60;2.60;;;;;16.85;52.56;97854.38;6257647;27;96802;-63
2022/09/18 14:09:58;;;;;;;;;4.00;3.00;;;;;16.80;52.91;97861.78;6265840;27;97470;-65
2022/09/18 14:13:30;;;;;;;;;2.80;2.80;;;;;16.62;52.75;97855.13;6265971;27;96424;-64
2022/09/18 14:16:40;;;;;;;;;3.00;3.00;;;;;16.46;53.55;97864.50;6265804;27;97461;-64
2022/09/18 14:19:49;;;;;;;;;1.40;1.00;;;;;16.20;54.17;97857.59;6263508;27;96684;-65
2022/09/18 14:22:52;;;;;;;;;2.00;2.00;;;;;16.20;54.83;97863.06;6264516;27;96671;-64
2022/09/18 14:25:55;;;;;;;;;2.00;2.00;;;;;16.14;55.34;97867.72;6263617;27;96398;-64
2022/09/18 14:29:02;;;;;;;;;2.80;2.80;;;;;15.99;55.72;97863.19;6263380;27;97961;-64
2022/09/18 14:32:17;;;;;;;;;3.00;3.00;;;;;16.06;55.44;97860.16;6264810;27;97439;-63
2022/09/18 14:35:35;;;;;;;;;2.00;2.00;;;;;15.93;56.02;97866.22;6264874;27;96663;-64
2022/09/18 14:38:39;;;;;;;;;3.00;3.00;;;;;15.68;57.12;97869.88;6265274;27;96550;-64
2022/09/18 14:41:43;;;;;;;;;2.00;1.00;;;;;15.66;57.30;97871.25;6263205;27;97755;-64
2022/09/18 14:44:49;;;;;;;;;3.40;3.00;;;;;15.70;57.53;97878.56;6264036;27;97208;-65
2022/09/18 14:47:52;;;;;;;;;2.00;2.00;;;;;15.58;57.82;97880.81;6261448;27;96446;-63
2022/09/18 14:51:03;;;;;;;;;4.00;3.80;;;;;15.66;57.61;97880.22;6263338;27;97469;-64
2022/09/18 14:54:24;;;;;;;;;3.25;3.25;;;;;15.38;58.18;97884.38;6263475;27;97554;-65
2022/09/18 14:57:33;;;;;;;;;2.00;2.00;;;;;15.42;58.03;97885.44;6243721;27;97450;-64